Details From KORF - Norfolk Intl
To KONX - Currituck Co
Flight Number -
Tags Decoded
Created
Modified
Stats Distance 65 nm / 120 km
Max Altitude 0 ft / 0 m
Waypoints 3
Social Downloads 2
Likes 0
Share VATSIM

Download

Looking for another format? Having issues loading an existing format? Contact us
Advertisement - Login to hide

Notes

Decoded

Route

KORF 3VA8 KONX

ID Type Via Altitude Latitude Longitude Leg Dist Tot Dist Heading (true) Name
O KORF APT - 0 ft / 0 m 36.89647˚ -76.21165˚ - 0 nm - -
3VA8 APT - 0 ft / 0 m 36.85274˚ -76.68148˚ 22 nm 22 nm 264° / 263° -
O KONX APT - 0 ft / 0 m 36.39443˚ -76.02020˚ 42 nm 64 nm 131° / 131° -

Altitude Profile

Advertisement - Login to hide

KORF

Details ICAO KORF (ORF)
Name Norfolk Intl
Region United States
Timezone America/New_York (UTC-5.0)
Stats Elevation 26 ft / 8 m (AMSL)
Location 36.894606° -76.201594°
Runways 2
Magnetic Variation 10.907° W

METAR

KORF 181951Z 27004KT 10SM CLR 16/04 A3002 RMK AO2 SLP166 T01610039

Decode

TAF

TAF KORF 181720Z 1818/1918 27006KT P6SM SCT250 FM190000 VRB03KT P6SM FEW250 FM191500 25006KT P6SM FEW070

Decode

Departure Runways

ID Width Length Bearing (true) Bearing (mag) Surface Threshold Offset Overrun Length
05 151 ft / 46 m 8,028 ft / 2,447 m 37.69° 48.60° Asphalt 190 ft / 58 m 1,198 ft / 365 m
14 151 ft / 46 m 4,674 ft / 1,425 m 128.08° 138.99° Asphalt 187 ft / 57 m 207 ft / 63 m
23 151 ft / 46 m 8,028 ft / 2,447 m 217.70° 228.61° Asphalt 0 ft / 0 m 200 ft / 61 m
32 151 ft / 46 m 4,674 ft / 1,425 m 308.09° 319.00° Asphalt 177 ft / 54 m 0 ft / 0 m

KONX

Details ICAO KONX
Name CURRITUCK CO
Region United States
Timezone America/New_York (UTC-5.0)
Stats Elevation 16 ft / 5 m (AMSL)
Location 36.398930° -76.016301°
Runways 1
Magnetic Variation 10.915° W

METAR

KONX 182040Z AUTO 22004KT 10SM CLR 17/07 A3004 RMK AO2 T01680070

Decode

TAF

Not found

Destination Runways

ID Width Length Bearing (true) Bearing (mag) Surface Threshold Offset Overrun Length
05 150 ft / 46 m 4,005 ft / 1,221 m 34.88° 45.80° Concrete 0 ft / 0 m 0 ft / 0 m
23 150 ft / 46 m 4,005 ft / 1,221 m 214.88° 225.80° Concrete 350 ft / 107 m 0 ft / 0 m